createdAt,value
2022-09-04T00:00:08.828Z,42.63
2022-09-04T00:05:21.888Z,42.55
2022-09-04T00:10:34.263Z,41.80
2022-09-04T00:15:44.797Z,41.80
2022-09-04T00:20:51.686Z,41.58
2022-09-04T00:26:03.880Z,41.70
2022-09-04T00:31:19.259Z,41.58
2022-09-04T00:36:25.342Z,42.15
2022-09-04T00:41:32.113Z,42.17
2022-09-04T00:46:51.989Z,41.75
2022-09-04T00:52:03.796Z,42.33
2022-09-04T00:57:44.152Z,42.55
2022-09-04T01:03:16.439Z,42.65
2022-09-04T01:08:36.212Z,43.40
2022-09-04T01:13:44.310Z,42.20
2022-09-04T01:18:56.060Z,42.42
2022-09-04T01:24:42.496Z,41.72
2022-09-04T01:29:55.034Z,41.83
2022-09-04T01:35:05.020Z,42.50
2022-09-04T01:40:23.101Z,42.30
2022-09-04T01:46:05.060Z,41.85
2022-09-04T01:51:19.232Z,42.40
2022-09-04T01:56:30.054Z,42.22
2022-09-04T02:01:42.223Z,42.67
2022-09-04T02:06:56.169Z,42.65
2022-09-04T02:12:09.419Z,43.25
2022-09-04T02:17:18.542Z,42.83
2022-09-04T02:22:29.610Z,42.88
2022-09-04T02:27:38.524Z,42.03
2022-09-04T02:32:50.123Z,42.13
2022-09-04T02:38:13.156Z,41.40
2022-09-04T02:43:29.079Z,41.80
2022-09-04T02:48:44.696Z,41.80
2022-09-04T02:53:57.660Z,44.00
2022-09-04T02:59:21.539Z,42.13
2022-09-04T03:04:32.020Z,42.30
2022-09-04T03:09:41.352Z,41.80
2022-09-04T03:14:50.665Z,41.78
2022-09-04T03:20:00.422Z,41.45
2022-09-04T03:25:24.843Z,42.03
2022-09-04T03:30:29.727Z,41.55
2022-09-04T03:35:40.809Z,41.97
2022-09-04T03:40:53.297Z,41.63
2022-09-04T03:46:02.399Z,41.28
2022-09-04T03:51:16.038Z,41.65
2022-09-04T03:56:31.067Z,42.03
2022-09-04T04:01:47.954Z,41.10
2022-09-04T04:06:57.306Z,41.28
2022-09-04T04:12:14.675Z,41.42
2022-09-04T04:17:32.581Z,41.83
2022-09-04T04:22:49.633Z,42.00
2022-09-04T04:28:17.110Z,41.28
2022-09-04T04:33:33.244Z,41.45
2022-09-04T04:38:47.591Z,42.03
2022-09-04T04:44:02.522Z,41.05
2022-09-04T04:49:40.030Z,41.10
2022-09-04T04:54:57.007Z,41.20
2022-09-04T05:00:11.690Z,41.25
2022-09-04T05:05:22.335Z,41.25
2022-09-04T05:10:32.675Z,41.75
2022-09-04T05:15:58.440Z,40.85
2022-09-04T05:21:11.643Z,40.95
2022-09-04T05:26:25.720Z,40.75
2022-09-04T05:31:40.110Z,41.50
2022-09-04T05:36:50.045Z,41.55
2022-09-04T05:42:06.541Z,41.60
2022-09-04T05:47:26.482Z,41.03
2022-09-04T05:52:53.720Z,41.33
2022-09-04T05:58:11.940Z,40.70
2022-09-04T06:03:38.653Z,40.85
2022-09-04T06:09:11.874Z,40.95
2022-09-04T06:14:31.753Z,41.05
2022-09-04T06:19:43.727Z,42.47
2022-09-04T06:25:10.744Z,41.30
2022-09-04T06:30:17.785Z,41.47
2022-09-04T06:35:36.322Z,41.90
2022-09-04T06:40:49.619Z,41.42
2022-09-04T06:46:03.132Z,42.47
2022-09-04T06:51:20.975Z,41.00
2022-09-04T06:56:37.016Z,41.45
2022-09-04T07:01:52.455Z,41.55
2022-09-04T07:07:07.183Z,45.47
2022-09-04T07:12:28.384Z,41.88
2022-09-04T07:17:39.410Z,42.28
2022-09-04T07:23:08.739Z,43.95
2022-09-04T07:28:24.286Z,42.60
2022-09-04T07:33:36.780Z,42.17
2022-09-04T07:38:50.807Z,42.13
2022-09-04T07:44:03.427Z,41.78
2022-09-04T07:49:13.762Z,42.00
2022-09-04T07:54:30.842Z,41.90
2022-09-04T07:59:56.807Z,43.00
2022-09-04T08:05:17.724Z,42.45
2022-09-04T08:10:31.483Z,43.20
2022-09-04T08:15:43.791Z,42.97
2022-09-04T08:20:58.645Z,42.97
2022-09-04T08:26:14.232Z,43.58
2022-09-04T08:31:26.367Z,44.67
2022-09-04T08:36:40.353Z,43.55
2022-09-04T08:42:20.590Z,43.65
2022-09-04T08:48:11.337Z,43.45
2022-09-04T08:53:43.316Z,43.40
2022-09-04T08:59:31.355Z,43.30
2022-09-04T09:05:05.689Z,43.35
2022-09-04T09:10:47.472Z,43.30
2022-09-04T09:16:02.165Z,43.03
2022-09-04T09:21:12.320Z,43.55
2022-09-04T09:26:28.126Z,43.63
2022-09-04T09:32:12.926Z,43.22
2022-09-04T09:38:05.606Z,42.75
2022-09-04T09:43:51.088Z,42.72
2022-09-04T09:49:31.864Z,42.95
2022-09-04T09:55:26.762Z,43.38
2022-09-04T10:08:04.534Z,42.60
2022-09-04T10:13:54.225Z,43.55
2022-09-04T10:19:19.315Z,45.72
2022-09-04T10:24:54.795Z,44.28
2022-09-04T10:30:07.071Z,44.10
2022-09-04T10:35:25.485Z,43.25
2022-09-04T10:40:47.077Z,43.75
2022-09-04T10:46:02.113Z,45.25
2022-09-04T10:51:37.174Z,43.55
2022-09-04T10:56:54.356Z,42.75
2022-09-04T11:02:41.019Z,44.38
2022-09-04T11:08:01.935Z,42.90
2022-09-04T11:13:44.658Z,42.75
2022-09-04T11:19:28.704Z,43.13
2022-09-04T11:25:19.011Z,42.83
2022-09-04T11:30:29.625Z,43.13
2022-09-04T11:36:06.231Z,43.65
2022-09-04T11:41:33.000Z,43.00
2022-09-04T11:47:07.575Z,43.28
2022-09-04T11:52:18.142Z,42.90
2022-09-04T11:57:37.409Z,43.05
2022-09-04T12:03:17.695Z,44.22
2022-09-04T12:08:46.745Z,42.90
2022-09-04T12:14:04.749Z,43.33
2022-09-04T12:20:06.085Z,43.42
2022-09-04T12:25:40.584Z,43.65
2022-09-04T12:31:17.483Z,43.78
2022-09-04T12:36:59.320Z,43.55
2022-09-04T12:42:15.950Z,43.13
2022-09-04T12:47:33.851Z,43.22
2022-09-04T12:52:56.745Z,44.20
2022-09-04T12:58:10.203Z,43.45
2022-09-04T13:03:25.947Z,43.65
2022-09-04T13:08:39.294Z,43.47
2022-09-04T13:13:55.536Z,43.53
2022-09-04T13:19:08.500Z,43.58
2022-09-04T13:24:25.505Z,43.92
2022-09-04T13:29:46.625Z,43.65
2022-09-04T13:35:03.891Z,43.58
2022-09-04T13:40:22.450Z,43.75
2022-09-04T13:45:27.675Z,43.55
2022-09-04T13:50:35.375Z,44.05
2022-09-04T13:55:42.811Z,43.92
2022-09-04T14:00:59.661Z,43.60
2022-09-04T14:06:04.257Z,43.78
2022-09-04T14:11:30.335Z,43.53
2022-09-04T14:16:36.827Z,44.00
2022-09-04T14:22:00.313Z,44.08
2022-09-04T14:27:11.801Z,44.17
2022-09-04T14:32:23.506Z,43.85
2022-09-04T14:37:57.181Z,44.15
2022-09-04T14:49:13.143Z,44.63
2022-09-04T14:54:36.459Z,44.70
2022-09-04T14:59:51.825Z,43.95
2022-09-04T15:05:18.358Z,43.92
2022-09-04T15:10:33.079Z,44.72
2022-09-04T15:16:16.066Z,44.03
2022-09-04T15:21:29.535Z,44.95
2022-09-04T15:27:12.762Z,44.40
2022-09-04T15:32:32.425Z,44.58
2022-09-04T15:37:38.416Z,44.33
2022-09-04T15:42:47.437Z,44.88
2022-09-04T15:48:26.560Z,44.95
2022-09-04T15:53:33.648Z,44.28
2022-09-04T15:58:51.107Z,44.28
2022-09-04T16:05:07.051Z,44.33
2022-09-04T16:10:16.718Z,43.83
2022-09-04T16:15:27.043Z,44.85
2022-09-04T16:20:41.778Z,44.22
2022-09-04T16:25:52.365Z,44.55
2022-09-04T16:30:58.891Z,44.85
2022-09-04T16:36:11.370Z,43.97
2022-09-04T16:41:25.586Z,44.33
2022-09-04T16:46:35.395Z,44.50
2022-09-04T16:51:44.075Z,44.85
2022-09-04T16:56:53.360Z,45.03
2022-09-04T17:02:24.138Z,45.50
2022-09-04T17:07:44.908Z,44.33
2022-09-04T17:12:55.309Z,45.40
2022-09-04T17:18:01.216Z,44.92
2022-09-04T17:28:59.891Z,45.83
2022-09-04T17:29:24.745Z,45.17
2022-09-04T17:40:39.787Z,44.97
2022-09-04T17:40:49.262Z,45.30
2022-09-04T17:45:22.364Z,45.45
2022-09-04T17:50:25.677Z,45.50
2022-09-04T17:55:38.862Z,44.70
2022-09-04T18:01:15.057Z,44.92
2022-09-04T18:06:23.895Z,45.17
2022-09-04T18:11:30.534Z,44.90
2022-09-04T18:17:11.474Z,44.47
2022-09-04T18:22:31.857Z,45.85
2022-09-04T18:27:44.704Z,45.03
2022-09-04T18:37:10.009Z,45.65
2022-09-04T18:38:20.669Z,45.20
2022-09-04T18:50:33.353Z,44.97
2022-09-04T18:50:34.796Z,44.33
2022-09-04T18:54:32.367Z,45.78
2022-09-04T18:59:43.388Z,45.08
2022-09-04T19:04:52.793Z,44.47
2022-09-04T19:10:12.192Z,44.58
2022-09-04T19:15:37.662Z,44.90
2022-09-04T19:20:48.955Z,44.90
2022-09-04T19:25:55.260Z,43.92
2022-09-04T19:31:03.190Z,44.10
2022-09-04T19:36:23.068Z,44.05
2022-09-04T19:46:02.418Z,43.60
2022-09-04T19:47:05.323Z,43.72
2022-09-04T19:53:35.190Z,43.90
2022-09-04T19:58:11.659Z,43.78
2022-09-04T20:03:29.360Z,43.72
2022-09-04T20:08:41.208Z,43.55
2022-09-04T20:13:48.722Z,43.50
2022-09-04T20:19:07.163Z,43.38
2022-09-04T20:24:14.681Z,43.38
2022-09-04T20:29:23.345Z,43.55
2022-09-04T20:34:36.367Z,43.30
2022-09-04T20:39:48.438Z,43.50
2022-09-04T20:45:59.188Z,42.95
2022-09-04T20:52:51.802Z,43.63
2022-09-04T20:56:13.341Z,44.13
2022-09-04T21:03:26.488Z,43.55
2022-09-04T21:07:31.146Z,43.15
2022-09-04T21:12:41.618Z,43.67
2022-09-04T21:18:04.500Z,43.15
2022-09-04T21:23:33.304Z,43.55
2022-09-04T21:28:54.094Z,43.28
2022-09-04T21:34:18.422Z,43.25
2022-09-04T21:39:49.237Z,43.10
2022-09-04T21:45:19.003Z,43.88
2022-09-04T21:50:42.283Z,43.10
2022-09-04T21:57:22.493Z,43.05
2022-09-04T22:02:47.552Z,44.13
2022-09-04T22:10:31.054Z,43.25
2022-09-04T22:13:37.960Z,43.22
2022-09-04T22:18:20.070Z,43.45
2022-09-04T22:23:50.832Z,42.97
2022-09-04T22:29:40.019Z,42.95
2022-09-04T22:35:24.160Z,43.33
2022-09-04T22:40:56.048Z,43.28
2022-09-04T22:46:18.264Z,43.28
2022-09-04T22:51:47.845Z,42.83
2022-09-04T22:56:58.087Z,43.28
2022-09-04T23:02:19.500Z,42.83
2022-09-04T23:12:15.512Z,43.03
2022-09-04T23:13:56.343Z,42.95
2022-09-04T23:22:50.660Z,43.15
2022-09-04T23:26:49.988Z,42.88
2022-09-04T23:30:25.188Z,42.75
2022-09-04T23:35:42.292Z,42.92
2022-09-04T23:40:48.283Z,42.60
2022-09-04T23:46:39.132Z,42.45
2022-09-04T23:51:49.028Z,42.22
2022-09-04T23:57:00.714Z,42.67
